Time;durP1;ratioP1;P1;durP2;ratioP2;P2;SDS_P1;SDS_P2;PMS_P1;PMS_P2;Temp;Humidity;BMP_temperature;BMP_pressure;BME280_temperature;BME280_humidity;BME280_pressure;Samples;Min_cycle;Max_cycle;Signal;HPM_P1;HPM_P2
2022/01/15 00:00:24;;;;;;;3.43;0.20;;;;;;;2.61;52.77;98833.63;1759483;79;21049;-59
2022/01/15 00:02:52;;;;;;;0.30;0.10;;;;;;;2.59;51.95;98809.31;1718597;81;21041;-60
2022/01/15 00:05:19;;;;;;;1.98;0.20;;;;;;;2.57;51.67;98846.31;1731237;81;21025;-59
2022/01/15 00:07:47;;;;;;;0.88;0.10;;;;;;;2.57;51.92;98820.51;1702277;83;21070;-60
2022/01/15 00:10:17;;;;;;;1.97;0.37;;;;;;;2.56;52.00;98814.91;1678143;84;21132;-61
2022/01/15 00:12:44;;;;;;;2.47;0.30;;;;;;;2.56;51.17;98815.72;1703003;83;21516;-61
2022/01/15 00:15:26;;;;;;;1.27;0.20;;;;;;;2.59;50.94;98840.88;1676559;84;21089;-61
2022/01/15 00:17:59;;;;;;;0.30;0.20;;;;;;;2.62;50.86;98840.52;1656945;84;21582;-61
2022/01/15 00:20:27;;;;;;;1.00;0.13;;;;;;;2.65;50.97;98862.03;1665998;84;21182;-57
2022/01/15 00:22:57;;;;;;;2.53;0.10;;;;;;;2.69;51.43;98873.03;1688052;83;21124;-59
2022/01/15 00:25:26;;;;;;;0.50;0.10;;;;;;;2.69;51.33;98865.98;1664010;84;21038;-60
2022/01/15 00:27:53;;;;;;;0.40;0.10;;;;;;;2.64;50.69;98860.41;1676300;84;21002;-62
2022/01/15 00:30:20;;;;;;;0.87;0.10;;;;;;;2.62;50.36;98858.92;1675483;84;21026;-63
2022/01/15 00:32:48;;;;;;;2.10;0.70;;;;;;;2.63;50.74;98880.31;1685320;84;21006;-61
2022/01/15 00:35:15;;;;;;;1.23;0.40;;;;;;;2.64;50.74;98874.07;1675174;84;21045;-59
2022/01/15 00:37:43;;;;;;;0.40;0.10;;;;;;;2.66;50.69;98883.92;1675908;84;21128;-59
2022/01/15 00:40:14;;;;;;;0.53;0.07;;;;;;;2.68;50.86;98876.67;1673428;84;21063;-59
2022/01/15 00:42:42;;;;;;;2.03;0.10;;;;;;;2.71;50.64;98891.62;1674521;84;21077;-59
2022/01/15 00:45:16;;;;;;;3.13;0.10;;;;;;;2.72;50.58;98880.09;1660053;84;21109;-60
2022/01/15 00:47:41;;;;;;;0.70;0.10;;;;;;;2.72;50.80;98897.70;1647755;85;21542;-61
2022/01/15 00:50:09;;;;;;;0.50;0.10;;;;;;;2.72;50.57;98901.14;1666404;85;21532;-60
2022/01/15 00:52:37;;;;;;;0.40;0.10;;;;;;;2.72;50.16;98901.64;1644528;86;21078;-61
2022/01/15 00:55:06;;;;;;;1.10;0.10;;;;;;;2.73;50.14;98894.05;1629894;86;21045;-61
2022/01/15 00:57:32;;;;;;;3.30;0.20;;;;;;;2.73;50.17;98905.89;1645940;85;21026;-59
2022/01/15 00:59:59;;;;;;;1.75;0.30;;;;;;;2.75;49.80;98913.15;1631442;86;21049;-60
2022/01/15 01:02:25;;;;;;;1.50;0.50;;;;;;;2.75;50.04;98911.83;1659311;85;21075;-61
2022/01/15 01:04:51;;;;;;;1.70;0.10;;;;;;;2.75;50.24;98909.20;1666300;85;21603;-63
2022/01/15 01:07:17;;;;;;;4.17;0.28;;;;;;;2.73;50.04;98913.31;1664351;85;21132;-59
2022/01/15 01:10:12;;;;;;;0.40;0.20;;;;;;;2.71;49.95;98915.77;1655755;85;21632;-59
2022/01/15 01:13:38;;;;;;;2.80;0.13;;;;;;;2.68;50.48;98925.34;1682959;80;21073;-59
2022/01/15 01:20:55;;;;;;;2.27;0.10;;;;;;;2.68;50.63;98930.61;1678838;83;21073;-64
2022/01/15 01:23:04;;;;;;;0.67;0.10;;;;;;;2.64;50.97;98891.17;1666441;83;21476;-60
2022/01/15 01:25:39;;;;;;;1.27;0.10;;;;;;;2.63;50.47;98921.09;1648781;85;21145;-59
2022/01/15 01:28:17;;;;;;;0.53;0.10;;;;;;;2.64;50.63;98940.66;1648514;85;21066;-64
2022/01/15 01:30:49;;;;;;;0.57;0.23;;;;;;;2.65;50.71;98941.47;1648017;85;21510;-58
2022/01/15 01:36:04;;;;;;;0.27;0.10;;;;;;;2.61;51.11;98937.55;1707196;83;21138;-60
2022/01/15 01:38:30;;;;;;;2.70;0.30;;;;;;;2.58;51.39;98899.73;1696765;83;21126;-62
2022/01/15 01:40:52;;;;;;;2.57;0.60;;;;;;;2.57;51.28;98939.69;1699571;83;21561;-59
2022/01/15 01:45:55;;;;;;;1.23;0.10;;;;;;;2.56;51.38;98954.33;1699620;83;21633;-61
2022/01/15 01:48:17;;;;;;;0.70;0.10;;;;;;;2.58;51.87;98960.23;1663537;84;20981;-60
2022/01/15 01:50:43;;;;;;;0.80;0.10;;;;;;;2.58;51.81;98962.86;1667827;84;21054;-61
2022/01/15 01:53:10;;;;;;;0.60;0.20;;;;;;;2.59;51.99;98959.26;1681097;84;21080;-59
2022/01/15 01:55:37;;;;;;;0.47;0.10;;;;;;;2.57;51.97;98958.11;1666435;84;21027;-63
2022/01/15 01:58:04;;;;;;;2.22;1.10;;;;;;;2.53;52.19;98968.14;1662676;84;21066;-60
2022/01/15 02:00:31;;;;;;;1.00;0.10;;;;;;;2.48;52.01;98921.80;1663890;84;21124;-60
2022/01/15 02:03:00;;;;;;;2.30;0.10;;;;;;;2.46;52.01;98959.79;1666221;84;21069;-61
2022/01/15 02:05:26;;;;;;;1.13;0.00;;;;;;;2.43;52.10;98982.00;1667232;84;21080;-61
2022/01/15 02:07:52;;;;;;;0.50;0.10;;;;;;;2.44;52.48;98977.05;1676699;84;21121;-59
2022/01/15 02:10:21;;;;;;;0.33;0.10;;;;;;;2.43;52.49;98988.58;1666107;84;20986;-62
2022/01/15 02:12:55;;;;;;;1.30;0.30;;;;;;;2.43;52.84;99024.55;1642272;86;21073;-60
2022/01/15 02:15:24;;;;;;;0.20;0.10;;;;;;;2.41;53.17;98996.29;1645109;85;21533;-59
2022/01/15 02:17:52;;;;;;;0.57;0.37;;;;;;;2.42;53.21;99007.96;1639907;85;21067;-59
2022/01/15 02:25:59;;;;;;;0.20;0.10;;;;;;;2.32;54.35;99024.44;1655191;85;21497;-61
2022/01/15 02:28:28;;;;;;;1.27;0.20;;;;;;;2.28;54.31;99009.48;1658846;85;21533;-59
2022/01/15 02:31:01;;;;;;;1.37;0.10;;;;;;;2.24;55.21;99033.63;1650947;85;21065;-59
2022/01/15 02:33:29;;;;;;;0.27;0.20;;;;;;;2.20;56.07;99054.67;1645368;84;21109;-61
2022/01/15 02:35:55;;;;;;;2.47;0.20;;;;;;;2.16;56.80;99048.11;1653396;85;21125;-58
2022/01/15 02:38:23;;;;;;;3.60;0.10;;;;;;;2.09;57.42;99035.64;1648546;85;21042;-66
2022/01/15 02:40:50;;;;;;;0.73;0.30;;;;;;;2.05;58.53;99054.02;1647461;85;21018;-59
2022/01/15 02:43:19;;;;;;;;;;;;;;;2.00;59.29;99045.83;1615314;87;21058;-60
2022/01/15 02:45:57;;;;;;;1.50;0.10;;;;;;;1.94;59.92;99051.72;1632925;86;20573;-59
2022/01/15 02:48:27;;;;;;;1.50;0.40;;;;;;;1.83;60.00;99059.45;1606992;88;21137;-58
2022/01/15 02:50:56;;;;;;;1.47;0.10;;;;;;;1.77;60.30;99040.37;1633352;86;21073;-61
2022/01/15 02:53:23;;;;;;;0.40;0.10;;;;;;;1.73;60.46;99083.26;1642435;86;21094;-58
2022/01/15 02:55:52;;;;;;;3.15;0.30;;;;;;;1.73;60.72;99088.98;1670811;83;21016;-59
2022/01/15 02:58:21;;;;;;;1.43;0.20;;;;;;;1.71;61.13;99079.97;1670057;84;21194;-57
2022/01/15 03:00:50;;;;;;;2.43;0.20;;;;;;;1.70;61.22;99092.77;1693800;84;20972;-59
2022/01/15 03:03:16;;;;;;;3.13;0.87;;;;;;;1.71;61.08;99099.67;1686185;84;21045;-58
2022/01/15 03:05:42;;;;;;;0.75;0.10;;;;;;;1.71;61.54;99103.62;1661768;84;21035;-59
2022/01/15 03:08:09;;;;;;;1.27;0.25;;;;;;;1.71;61.08;99115.44;1666638;84;21036;-59
2022/01/15 03:10:36;;;;;;;0.70;0.00;;;;;;;1.74;61.22;99108.53;1663250;84;21125;-65
2022/01/15 03:13:09;;;;;;;0.28;0.10;;;;;;;1.78;61.14;99104.27;1664459;84;21086;-60
2022/01/15 03:15:30;;;;;;;1.70;0.10;;;;;;;1.82;61.38;99117.41;1668062;84;21082;-58
2022/01/15 03:17:56;;;;;;;1.17;0.10;;;;;;;1.84;61.44;99111.50;1665134;84;21058;-59
2022/01/15 03:20:23;;;;;;;0.62;0.10;;;;;;;1.86;61.43;99110.84;1661459;84;21561;-59
2022/01/15 03:22:49;;;;;;;2.25;0.55;;;;;;;1.84;61.44;99103.62;1665926;84;21058;-59
2022/01/15 03:25:17;;;;;;;0.28;0.20;;;;;;;1.86;61.45;99109.03;1676706;84;21054;-62
2022/01/15 03:27:44;;;;;;;0.40;0.10;;;;;;;1.87;61.25;99115.94;1671461;84;21098;-59
2022/01/15 03:30:12;;;;;;;2.63;0.10;;;;;;;1.90;60.72;99108.22;1674955;84;21006;-59
2022/01/15 03:32:44;;;;;;;0.83;0.10;;;;;;;1.91;60.52;99115.13;1671709;84;20991;-58
2022/01/15 03:35:16;;;;;;;1.33;0.20;;;;;;;1.91;60.23;99119.07;1679086;83;21010;-60
2022/01/15 03:37:45;;;;;;;2.47;0.33;;;;;;;1.92;59.98;99122.86;1695398;83;21042;-59
2022/01/15 03:40:17;;;;;;;0.83;0.20;;;;;;;1.90;59.63;99121.36;1694933;83;21040;-62
2022/01/15 03:42:45;;;;;;;2.20;0.63;;;;;;;1.92;59.27;99123.33;1694844;83;21075;-59
2022/01/15 03:45:14;;;;;;;1.50;0.17;;;;;;;1.92;59.31;99138.63;1696940;83;21000;-58
2022/01/15 03:47:43;;;;;;;0.57;0.10;;;;;;;1.95;58.66;99117.75;1697764;83;21023;-59
2022/01/15 03:50:12;;;;;;;0.40;0.10;;;;;;;1.95;58.72;99139.59;1694166;83;21510;-59
2022/01/15 03:52:39;;;;;;;0.83;0.13;;;;;;;1.99;58.74;99127.45;1699225;83;21014;-59
2022/01/15 03:55:07;;;;;;;2.08;0.10;;;;;;;1.99;58.58;99134.84;1693267;83;21062;-59
2022/01/15 03:57:35;;;;;;;1.97;0.87;;;;;;;2.01;58.00;99127.61;1675584;84;21125;-59
2022/01/15 04:00:09;;;;;;;2.30;0.60;;;;;;;2.03;58.33;99135.34;1668894;84;21064;-62
2022/01/15 04:02:38;;;;;;;0.60;0.10;;;;;;;2.06;58.31;99120.06;1665112;84;21054;-57
2022/01/15 04:05:06;;;;;;;;;;;;;;;2.06;58.08;99128.45;1662864;84;21049;-58
2022/01/15 04:07:32;;;;;;;0.73;0.20;;;;;;;2.05;58.05;99130.23;1663909;84;20465;-58
2022/01/15 04:10:01;;;;;;;3.07;0.10;;;;;;;1.98;58.06;99139.78;1665227;84;21086;-59
2022/01/15 04:12:27;;;;;;;4.20;0.20;;;;;;;1.99;58.02;99141.41;1664966;84;21010;-63
2022/01/15 04:14:53;;;;;;;0.40;0.10;;;;;;;2.02;57.95;99130.58;1662006;85;21062;-59
2022/01/15 04:17:19;;;;;;;0.80;0.10;;;;;;;2.06;58.14;99141.59;1663795;84;21054;-58
2022/01/15 04:19:46;;;;;;;1.67;0.17;;;;;;;2.09;58.22;99128.11;1666403;84;21046;-59
2022/01/15 04:22:12;;;;;;;3.22;0.42;;;;;;;2.11;58.18;99137.49;1666869;84;21533;-61
2022/01/15 04:24:38;;;;;;;0.20;0.10;;;;;;;2.14;57.66;99131.89;1672219;85;21118;-60
2022/01/15 04:27:05;;;;;;;;;;;;;;;2.16;57.31;99140.12;1679403;85;21035;-57
2022/01/15 04:29:33;;;;;;;0.30;0.10;;;;;;;2.20;57.25;99136.17;1673982;85;20171;-60
2022/01/15 04:31:59;;;;;;;1.80;0.20;;;;;;;2.19;57.33;99147.69;1677888;85;21527;-59
2022/01/15 04:34:27;;;;;;;1.55;0.20;;;;;;;2.23;57.45;99143.24;1678208;84;21041;-59
2022/01/15 04:37:01;;;;;;;0.43;0.20;;;;;;;2.28;57.25;99138.80;1680939;84;21906;-58
2022/01/15 04:39:26;;;;;;;0.30;0.10;;;;;;;2.29;56.96;99141.77;1678999;84;21565;-60
2022/01/15 04:41:52;;;;;;;0.90;0.10;;;;;;;2.29;57.15;99154.41;1683210;84;21087;-58
2022/01/15 04:44:18;;;;;;;2.92;0.13;;;;;;;2.30;57.08;99146.05;1679678;84;21066;-56
2022/01/15 04:46:45;;;;;;;1.02;0.20;;;;;;;2.32;56.84;99152.78;1676426;84;21023;-60
2022/01/15 04:49:11;;;;;;;;;;;;;;;2.34;56.82;99144.73;1699609;84;21007;-60
2022/01/15 04:51:37;;;;;;;0.80;0.10;;;;;;;2.39;56.70;99156.06;1679593;84;20100;-60
2022/01/15 04:54:04;;;;;;;0.47;0.20;;;;;;;2.38;56.54;99149.98;1677612;84;21538;-61
2022/01/15 04:56:31;;;;;;;1.47;0.77;;;;;;;2.39;56.49;99134.52;1680418;84;21467;-60
2022/01/15 04:58:57;;;;;;;0.98;0.03;;;;;;;2.40;56.29;99163.80;1618596;87;21091;-61
2022/01/15 05:01:23;;;;;;;0.75;0.20;;;;;;;2.39;55.91;99144.23;1664883;84;21519;-62
2022/01/15 05:03:49;;;;;;;4.70;0.10;;;;;;;2.39;55.84;99146.86;1660877;85;21017;-60
2022/01/15 05:06:17;;;;;;;0.55;0.10;;;;;;;2.39;55.78;99158.19;1648124;85;21107;-60
2022/01/15 05:08:45;;;;;;;1.13;0.10;;;;;;;2.42;55.49;99159.19;1646872;85;21074;-59
2022/01/15 05:11:26;;;;;;;1.63;0.50;;;;;;;2.42;55.60;99148.66;1653777;85;21114;-61
2022/01/15 05:13:40;;;;;;;1.83;0.13;;;;;;;2.43;55.76;99147.70;1650654;86;20999;-61
2022/01/15 05:16:07;;;;;;;3.10;0.60;;;;;;;2.43;55.57;99169.20;1621362;87;21019;-59
2022/01/15 05:18:33;;;;;;;0.23;0.20;;;;;;;2.45;55.62;99174.65;1650565;85;21059;-59
2022/01/15 05:20:59;;;;;;;0.37;0.28;;;;;;;2.40;55.48;99150.64;1653250;85;21040;-60
2022/01/15 05:23:29;;;;;;;1.13;0.10;;;;;;;2.48;55.43;99172.17;1674934;83;21077;-60
2022/01/15 05:25:55;;;;;;;0.72;0.40;;;;;;;2.50;55.46;99165.75;1686057;83;21030;-62
2022/01/15 05:28:21;;;;;;;0.82;0.20;;;;;;;2.48;55.35;99169.54;1691163;83;21006;-61
2022/01/15 05:30:47;;;;;;;1.95;0.10;;;;;;;2.49;55.56;99171.20;1694648;83;21132;-60
2022/01/15 05:33:13;;;;;;;3.27;0.15;;;;;;;2.48;55.94;99182.70;1696087;83;21026;-68
2022/01/15 05:35:39;;;;;;;0.98;0.13;;;;;;;2.48;55.72;99161.16;1692709;83;21574;-59
2022/01/15 05:38:05;;;;;;;2.55;0.47;;;;;;;2.47;55.69;99180.56;1698752;83;21048;-60
2022/01/15 05:40:31;;;;;;;1.02;0.13;;;;;;;2.47;55.87;99177.94;1707061;83;21455;-59
2022/01/15 05:42:57;;;;;;;0.65;0.10;;;;;;;2.46;55.98;99188.61;1694717;83;21134;-59
2022/01/15 05:45:24;;;;;;;1.37;0.30;;;;;;;2.45;55.89;99189.59;1666346;83;21079;-59
2022/01/15 05:47:51;;;;;;;;;;;;;;;2.46;55.92;99189.93;1659598;85;21058;-58
2022/01/15 05:50:17;;;;;;;0.97;0.20;;;;;;;2.45;56.05;99177.28;1648383;85;20165;-59
2022/01/15 05:52:44;;;;;;;2.60;0.33;;;;;;;2.43;55.73;99191.56;1654449;85;21275;-58
2022/01/15 05:55:11;;;;;;;1.12;0.10;;;;;;;2.44;55.48;99204.55;1662401;85;21126;-56
2022/01/15 05:57:38;;;;;;;1.23;0.50;;;;;;;2.48;55.26;99197.98;1664948;85;21196;-56
2022/01/15 06:00:07;;;;;;;1.00;0.10;;;;;;;2.51;55.05;99183.19;1665018;85;21351;-56
2022/01/15 06:02:35;;;;;;;1.13;0.30;;;;;;;2.51;54.47;99178.43;1669209;83;21042;-56
2022/01/15 06:05:01;;;;;;;0.40;0.20;;;;;;;2.55;54.35;99196.02;1677622;83;21541;-56
2022/01/15 06:07:27;;;;;;;2.10;0.28;;;;;;;2.57;54.02;99202.75;1689269;83;21019;-57
2022/01/15 06:09:53;;;;;;;0.30;0.10;;;;;;;2.62;54.08;99198.30;1683757;83;21172;-56
2022/01/15 06:12:28;;;;;;;2.10;0.10;;;;;;;2.64;53.87;99206.38;1659399;84;21038;-57
2022/01/15 06:14:49;;;;;;;1.63;0.20;;;;;;;2.66;53.78;99208.84;1685150;83;21074;-55
2022/01/15 06:17:15;;;;;;;1.67;0.20;;;;;;;2.69;53.98;99214.61;1671027;83;21038;-56
2022/01/15 06:19:42;;;;;;;1.67;0.20;;;;;;;2.71;53.48;99214.42;1689276;83;21040;-55
2022/01/15 06:22:08;;;;;;;0.57;0.20;;;;;;;2.75;53.44;99218.86;1681848;83;21485;-55
2022/01/15 06:24:35;;;;;;;2.05;0.30;;;;;;;2.78;53.14;99209.33;1673974;83;21554;-59
2022/01/15 06:27:01;;;;;;;0.62;0.20;;;;;;;2.81;53.14;99212.95;1684514;83;21038;-56
2022/01/15 06:29:28;;;;;;;1.75;0.10;;;;;;;2.84;52.85;99229.21;1611311;86;21058;-56
2022/01/15 06:31:54;;;;;;;1.10;0.10;;;;;;;2.87;52.81;99226.77;1688096;83;21047;-57
2022/01/15 06:34:20;;;;;;;0.55;0.55;;;;;;;2.90;53.00;99225.94;1644152;85;21049;-57
2022/01/15 06:36:47;;;;;;;0.37;0.10;;;;;;;2.93;52.88;99224.27;1657598;85;21023;-56
2022/01/15 06:39:13;;;;;;;1.00;0.20;;;;;;;2.96;52.78;99228.88;1649842;85;21027;-56
2022/01/15 06:41:39;;;;;;;0.28;0.10;;;;;;;2.97;52.76;99239.74;1624855;88;20983;-58
2022/01/15 06:44:06;;;;;;;0.53;0.10;;;;;;;2.99;52.71;99231.19;1685716;83;20999;-57
2022/01/15 06:46:32;;;;;;;2.83;0.10;;;;;;;2.99;53.02;99235.12;1705530;83;21040;-57
2022/01/15 06:48:58;;;;;;;0.45;0.10;;;;;;;3.00;52.88;99226.27;1700705;83;21123;-57
2022/01/15 06:51:25;;;;;;;0.20;0.10;;;;;;;2.99;53.30;99233.31;1700841;83;21054;-57
2022/01/15 06:53:51;;;;;;;2.05;0.10;;;;;;;3.02;53.13;99258.00;1704799;83;21083;-57
2022/01/15 06:56:17;;;;;;;1.10;0.20;;;;;;;3.05;53.63;99252.89;1705207;83;21079;-57
2022/01/15 06:58:44;;;;;;;0.45;0.10;;;;;;;3.06;53.36;99255.36;1705523;83;21145;-57
2022/01/15 07:01:10;;;;;;;;;;;;;;;3.06;53.21;99257.18;1692521;83;21070;-57
2022/01/15 07:03:36;;;;;;;1.13;0.33;;;;;;;3.14;53.25;99261.61;1679492;84;20112;-56
2022/01/15 07:06:02;;;;;;;1.00;0.30;;;;;;;3.13;53.20;99259.48;1684026;84;21050;-58
2022/01/15 07:08:28;;;;;;;0.60;0.30;;;;;;;3.10;53.17;99239.55;1679484;84;21062;-58
2022/01/15 07:10:54;;;;;;;0.45;0.37;;;;;;;3.24;53.26;99265.72;1680656;84;22168;-57
2022/01/15 07:13:20;;;;;;;1.15;0.42;;;;;;;3.30;53.09;99280.84;1679208;84;20966;-59
2022/01/15 07:15:48;;;;;;;2.52;0.40;;;;;;;3.38;53.09;99268.66;1681541;84;21501;-55
2022/01/15 07:18:16;;;;;;;2.43;0.20;;;;;;;3.43;53.02;99282.16;1675669;84;20986;-57
2022/01/15 07:20:43;;;;;;;0.70;0.43;;;;;;;3.46;53.10;99268.63;1674842;84;21146;-58
2022/01/15 07:23:09;;;;;;;0.63;0.10;;;;;;;3.50;53.24;99272.09;1672365;84;21012;-58
2022/01/15 07:25:35;;;;;;;0.98;0.20;;;;;;;3.54;53.08;99285.72;1689326;84;21015;-58
2022/01/15 07:28:01;;;;;;;3.75;0.60;;;;;;;3.56;53.28;99289.03;1683858;84;21056;-58
2022/01/15 07:30:27;;;;;;;0.78;0.30;;;;;;;3.58;53.33;99295.42;1662581;84;21092;-58
2022/01/15 07:32:53;;;;;;;4.17;0.20;;;;;;;3.58;53.42;99308.13;1678447;84;21531;-57
2022/01/15 07:35:19;;;;;;;3.70;0.42;;;;;;;3.61;53.61;99291.97;1682136;84;21003;-56
2022/01/15 07:37:45;;;;;;;0.30;0.13;;;;;;;3.60;53.45;99286.38;1679492;84;21131;-57
2022/01/15 07:40:12;;;;;;;1.80;0.42;;;;;;;3.61;53.72;99293.78;1674030;84;21083;-56
2022/01/15 07:42:40;;;;;;;4.03;0.43;;;;;;;3.63;53.74;99295.75;1676343;84;21130;-57
2022/01/15 07:45:11;;;;;;;2.80;1.27;;;;;;;3.63;53.55;99293.93;1676803;84;21034;-57
2022/01/15 07:47:39;;;;;;;3.97;0.63;;;;;;;3.61;53.50;99304.33;1676601;84;21055;-57
2022/01/15 07:50:10;;;;;;;2.70;0.50;;;;;;;3.59;53.56;99293.95;1678187;84;21198;-60
2022/01/15 07:52:36;;;;;;;0.97;0.30;;;;;;;3.57;53.66;99305.66;1680415;84;21003;-57
2022/01/15 07:55:04;;;;;;;1.60;0.82;;;;;;;3.56;53.85;99313.22;1672776;84;21386;-59
2022/01/15 07:57:32;;;;;;;2.73;0.40;;;;;;;3.57;54.00;99303.84;1680317;84;21131;-59
2022/01/15 07:59:59;;;;;;;0.87;0.40;;;;;;;3.61;54.02;99310.91;1623878;87;21215;-57
2022/01/15 08:02:25;;;;;;;1.60;0.80;;;;;;;3.61;53.94;99311.73;1677666;84;21054;-56
2022/01/15 08:04:51;;;;;;;2.15;0.68;;;;;;;3.60;53.94;99314.05;1641883;85;21170;-60
2022/01/15 08:07:18;;;;;;;1.20;0.20;;;;;;;3.61;54.21;99307.78;1673215;84;21103;-60
2022/01/15 08:09:44;;;;;;;5.07;0.20;;;;;;;3.59;54.10;99322.94;1670322;84;21092;-58
2022/01/15 08:12:11;;;;;;;1.15;0.20;;;;;;;3.57;54.22;99330.19;1694001;84;21242;-58
2022/01/15 08:14:38;;;;;;;1.62;0.60;;;;;;;3.55;54.25;99337.44;1692451;84;21101;-57
2022/01/15 08:17:04;;;;;;;;;;;;;;;3.53;54.33;99322.30;1685001;85;21133;-71
2022/01/15 08:19:30;;;;;;;1.27;0.20;;;;;;;3.53;54.53;99318.34;1672759;84;20199;-70
2022/01/15 08:21:57;;;;;;;0.75;0.20;;;;;;;3.44;54.69;99344.38;1696240;84;21511;-72
2022/01/15 08:24:23;;;;;;;1.60;0.20;;;;;;;3.41;54.99;99353.91;1677182;84;21144;-65
2022/01/15 08:26:51;;;;;;;0.50;0.20;;;;;;;3.41;55.15;99349.96;1665387;84;21011;-69
2022/01/15 08:29:17;;;;;;;1.77;0.40;;;;;;;3.40;55.09;99356.23;1678067;84;21070;-71
2022/01/15 08:31:43;;;;;;;2.22;0.50;;;;;;;3.40;55.37;99357.55;1679134;84;21037;-69
2022/01/15 08:34:09;;;;;;;1.05;0.30;;;;;;;3.41;55.34;99359.19;1674455;84;21033;-70
2022/01/15 08:36:36;;;;;;;2.50;0.77;;;;;;;3.40;55.58;99353.09;1652912;85;21094;-68
2022/01/15 08:39:04;;;;;;;;;;;;;;;3.45;55.39;99361.34;1680895;84;21058;-70
2022/01/15 08:41:34;;;;;;;1.20;0.40;;;;;;;3.50;55.33;99368.73;1674621;84;20140;-69
2022/01/15 08:44:01;;;;;;;1.57;0.50;;;;;;;3.49;55.45;99367.09;1684749;84;21035;-71
2022/01/15 08:46:28;;;;;;;1.60;0.33;;;;;;;3.54;55.58;99368.72;1679763;84;21138;-69
2022/01/15 08:48:54;;;;;;;1.25;0.62;;;;;;;3.55;55.46;99370.38;1676538;84;21743;-71
2022/01/15 08:51:22;;;;;;;1.30;0.33;;;;;;;3.59;55.65;99370.37;1659324;84;21007;-73
2022/01/15 08:53:48;;;;;;;5.37;0.20;;;;;;;3.60;55.85;99372.03;1669324;84;21619;-71
2022/01/15 08:56:14;;;;;;;5.92;0.30;;;;;;;3.62;55.91;99362.14;1646680;85;21036;-71
2022/01/15 08:58:41;;;;;;;1.27;0.20;;;;;;;3.64;55.88;99371.20;1683298;84;21692;-68
2022/01/15 09:01:13;;;;;;;2.02;0.47;;;;;;;3.62;56.08;99358.19;1681299;84;21042;-61
2022/01/15 09:03:37;;;;;;;0.40;0.37;;;;;;;3.64;56.21;99373.84;1680251;84;21015;-63
2022/01/15 09:06:03;;;;;;;1.75;0.50;;;;;;;3.64;56.38;99373.33;1683164;84;21117;-68
2022/01/15 09:08:30;;;;;;;3.12;0.50;;;;;;;3.64;56.70;99381.74;1681809;84;21554;-64
2022/01/15 09:10:56;;;;;;;2.15;0.30;;;;;;;3.58;56.67;99377.11;1645430;85;21055;-71
2022/01/15 09:13:22;;;;;;;2.90;0.20;;;;;;;3.62;57.17;99390.31;1679373;84;21038;-66
2022/01/15 09:15:51;;;;;;;2.20;0.60;;;;;;;3.60;57.50;99389.16;1680797;84;21047;-70
2022/01/15 09:18:19;;;;;;;4.10;0.30;;;;;;;3.59;57.69;99387.50;1629441;85;21900;-65
2022/01/15 09:20:47;;;;;;;2.07;0.50;;;;;;;3.58;57.86;99397.72;1654969;85;21507;-67
2022/01/15 09:23:13;;;;;;;2.67;0.77;;;;;;;3.58;58.01;99402.99;1707215;83;21035;-70
2022/01/15 09:25:40;;;;;;;0.40;0.20;;;;;;;3.55;58.51;99403.31;1700965;83;20943;-67
2022/01/15 09:30:51;;;;;;;0.90;0.70;;;;;;;3.47;58.78;99403.33;1708735;83;21102;-64
2022/01/15 09:33:18;;;;;;;2.52;0.62;;;;;;;3.48;59.06;99409.76;1711609;83;21516;-63
2022/01/15 09:35:44;;;;;;;2.02;0.78;;;;;;;3.54;59.18;99393.75;1693217;84;21063;-63
2022/01/15 09:38:12;;;;;;;2.00;0.80;;;;;;;3.59;59.41;99400.67;1697088;84;20992;-71
2022/01/15 09:40:40;;;;;;;6.80;0.93;;;;;;;3.59;59.45;99400.67;1694315;84;21348;-69
2022/01/15 09:43:08;;;;;;;2.33;0.50;;;;;;;3.57;59.53;99405.29;1659919;85;21075;-70
2022/01/15 09:45:35;;;;;;;1.87;0.60;;;;;;;3.58;59.58;99400.36;1646061;85;21026;-70
2022/01/15 09:48:05;;;;;;;1.60;0.80;;;;;;;3.61;59.38;99402.64;1624869;86;21074;-69
2022/01/15 09:50:37;;;;;;;3.17;0.63;;;;;;;3.58;59.41;99394.24;1623729;86;21626;-71
2022/01/15 09:53:04;;;;;;;1.37;0.70;;;;;;;3.54;59.45;99404.29;1673982;84;21074;-71
2022/01/15 09:55:30;;;;;;;2.17;0.67;;;;;;;3.56;59.48;99398.39;1683491;85;21073;-69
2022/01/15 09:57:56;;;;;;;4.80;0.30;;;;;;;3.62;59.27;99402.17;1657003;84;21129;-69
2022/01/15 10:00:25;;;;;;;8.80;0.40;;;;;;;3.67;59.02;99379.59;1681660;84;21224;-69
2022/01/15 10:02:52;;;;;;;4.23;0.60;;;;;;;3.70;58.68;99400.33;1677552;84;21656;-67
2022/01/15 10:05:20;;;;;;;1.07;0.30;;;;;;;3.74;58.60;99388.14;1683678;84;21082;-67
2022/01/15 10:08:09;;;;;;;2.43;0.30;;;;;;;3.75;58.71;99416.13;1679567;84;21098;-71
2022/01/15 10:10:36;;;;;;;0.90;0.30;;;;;;;3.76;59.03;99421.75;1674459;84;21059;-70
2022/01/15 10:13:24;;;;;;;0.60;0.20;;;;;;;3.74;59.30;99419.27;1687715;84;21518;-69
2022/01/15 10:16:04;;;;;;;2.57;0.33;;;;;;;3.71;59.30;99401.14;1672465;84;21054;-70
2022/01/15 10:18:33;;;;;;;3.73;0.57;;;;;;;3.61;59.27;99403.96;1697123;84;21015;-61
2022/01/15 10:21:18;;;;;;;1.13;0.30;;;;;;;3.59;59.32;99403.81;1673279;84;20982;-61
2022/01/15 10:23:55;;;;;;;1.17;0.20;;;;;;;3.57;59.60;99401.33;1673052;84;21100;-66
2022/01/15 10:26:26;;;;;;;2.58;0.40;;;;;;;3.57;59.28;99413.19;1676365;84;22066;-63
2022/01/15 10:29:01;;;;;;;1.03;0.30;;;;;;;3.59;59.21;99415.16;1681272;84;21018;-63
2022/01/15 10:31:32;;;;;;;1.23;0.20;;;;;;;3.60;59.31;99417.30;1676709;84;21129;-62
2022/01/15 10:34:00;;;;;;;3.30;0.20;;;;;;;3.63;59.43;99405.94;1676273;84;21062;-65
2022/01/15 10:36:32;;;;;;;1.97;0.47;;;;;;;3.72;58.88;99417.80;1675326;84;21030;-63
2022/01/15 10:39:20;;;;;;;0.80;0.30;;;;;;;3.81;58.41;99408.39;1687904;84;21078;-63
2022/01/15 10:41:48;;;;;;;1.23;0.33;;;;;;;3.88;57.83;99401.94;1685428;84;21122;-63
2022/01/15 10:44:34;;;;;;;1.27;0.30;;;;;;;3.94;57.58;99409.20;1677041;84;21602;-65
2022/01/15 10:47:09;;;;;;;3.83;0.33;;;;;;;3.98;57.75;99421.55;1679954;84;21015;-62
2022/01/15 10:49:38;;;;;;;1.20;0.40;;;;;;;3.97;57.47;99421.21;1689036;84;21525;-64
2022/01/15 10:52:19;;;;;;;0.50;0.10;;;;;;;3.93;57.58;99383.81;1679086;84;21056;-62
2022/01/15 10:55:02;;;;;;;0.83;0.10;;;;;;;3.84;56.97;99417.30;1678565;84;21095;-63
2022/01/15 10:57:33;;;;;;;0.77;0.10;;;;;;;3.79;57.13;99435.92;1676887;84;21142;-63
2022/01/15 11:00:08;;;;;;;1.73;0.40;;;;;;;3.72;57.34;99435.75;1682698;84;21566;-62
2022/01/15 11:02:37;;;;;;;0.60;0.20;;;;;;;3.69;57.91;99435.59;1675297;84;21094;-63
2022/01/15 11:05:24;;;;;;;0.53;0.20;;;;;;;3.66;58.13;99431.97;1666144;84;21056;-63
2022/01/15 11:07:53;;;;;;;1.62;0.30;;;;;;;3.66;58.67;99440.38;1681183;84;21264;-63
2022/01/15 11:10:20;;;;;;;2.37;0.20;;;;;;;3.66;58.81;99466.23;1675269;84;21113;-63
2022/01/15 11:12:47;;;;;;;0.30;0.20;;;;;;;3.65;59.35;99456.66;1681744;84;21057;-61
2022/01/15 11:15:15;;;;;;;6.30;0.67;;;;;;;3.62;59.23;99467.55;1676239;84;21581;-64
2022/01/15 11:17:43;;;;;;;2.37;0.30;;;;;;;3.62;59.75;99445.66;1670287;84;21102;-63
2022/01/15 11:20:13;;;;;;;1.95;0.47;;;;;;;3.61;59.80;99467.70;1641959;84;21048;-63
2022/01/15 11:22:40;;;;;;;0.53;0.10;;;;;;;3.58;59.89;99463.60;1631742;85;21008;-62
2022/01/15 11:25:09;;;;;;;1.23;0.20;;;;;;;3.55;60.00;99477.59;1618826;87;21055;-62
2022/01/15 11:27:36;;;;;;;1.33;0.20;;;;;;;3.54;60.05;99479.38;1618573;87;21112;-65
2022/01/15 11:30:04;;;;;;;2.00;0.43;;;;;;;3.51;60.21;99481.86;1669814;84;21090;-62
2022/01/15 11:32:32;;;;;;;1.33;0.20;;;;;;;3.51;60.27;99476.59;1682037;84;21034;-64
2022/01/15 11:35:05;;;;;;;0.70;0.20;;;;;;;3.50;60.26;99482.02;1678576;84;21085;-64
2022/01/15 11:37:49;;;;;;;4.27;0.30;;;;;;;3.44;60.10;99490.59;1689323;84;21044;-62
2022/01/15 11:40:35;;;;;;;5.03;0.10;;;;;;;3.44;60.13;99494.04;1677518;84;21048;-64
2022/01/15 11:43:30;;;;;;;3.30;0.60;;;;;;;3.45;60.29;99490.43;1680212;84;21097;-62
2022/01/15 11:46:00;;;;;;;0.67;0.10;;;;;;;3.40;60.10;99499.81;1667474;84;21184;-62
2022/01/15 11:48:30;;;;;;;3.90;0.20;;;;;;;3.36;60.11;99481.37;1681428;84;21787;-63
2022/01/15 11:51:20;;;;;;;0.40;0.10;;;;;;;3.36;60.09;99498.48;1678899;84;21080;-64
2022/01/15 11:53:58;;;;;;;1.23;0.30;;;;;;;3.37;59.97;99490.43;1678231;84;21004;-63
2022/01/15 11:56:32;;;;;;;0.83;0.27;;;;;;;3.40;59.48;99495.86;1682560;84;21050;-62
2022/01/15 11:59:21;;;;;;;0.40;0.30;;;;;;;3.40;59.34;99498.49;1683251;84;21083;-65
2022/01/15 12:01:47;;;;;;;1.67;0.30;;;;;;;3.41;59.18;99498.34;1682020;84;21004;-65
2022/01/15 12:04:31;;;;;;;0.60;0.40;;;;;;;3.45;58.91;99507.55;1671169;85;21501;-61
2022/01/15 12:07:09;;;;;;;0.67;0.27;;;;;;;3.48;59.09;99503.77;1670358;84;21093;-77
2022/01/15 12:09:48;;;;;;;2.13;0.67;;;;;;;3.45;58.97;99491.75;1678002;84;21519;-61